Time;durP1;ratioP1;P1;durP2;ratioP2;P2;SDS_P1;SDS_P2;PMS_P1;PMS_P2;Temp;Humidity;BMP_temperature;BMP_pressure;BME280_temperature;BME280_humidity;BME280_pressure;Samples;Min_cycle;Max_cycle;Signal;HPM_P1;HPM_P2
2021/09/20 00:00:17;;;;;;;10.07;8.60;;;;;;;17.26;97.05;94710.69;5096821;28;20480;-79
2021/09/20 00:02:44;;;;;;;8.20;6.60;;;;;;;17.24;97.04;94710.88;5045957;28;20445;-79
2021/09/20 00:05:12;;;;;;;8.00;7.23;;;;;;;17.23;97.14;94714.53;5097278;28;20460;-79
2021/09/20 00:07:40;;;;;;;8.03;6.90;;;;;;;17.21;97.47;94710.41;5097022;28;20451;-79
2021/09/20 00:10:09;;;;;;;7.07;6.07;;;;;;;17.17;97.34;94707.28;5044524;28;20445;-79
2021/09/20 00:12:36;;;;;;;8.53;6.53;;;;;;;17.19;97.32;94704.44;5012592;28;20440;-79
2021/09/20 00:15:04;;;;;;;10.03;6.73;;;;;;;17.16;97.40;94692.38;5096579;28;20791;-79
2021/09/20 00:17:31;;;;;;;8.27;7.57;;;;;;;17.18;97.44;94698.31;5096652;28;20436;-79
2021/09/20 00:19:58;;;;;;;8.20;6.47;;;;;;;17.20;96.96;94692.84;5096625;28;20488;-79
2021/09/20 00:22:27;;;;;;;9.53;6.20;;;;;;;17.17;96.95;94690.53;5096713;28;20448;-79
2021/09/20 00:24:54;;;;;;;8.17;6.97;;;;;;;17.20;96.58;94696.31;5096501;28;20454;-79
2021/09/20 00:27:21;;;;;;;7.80;6.82;;;;;;;17.25;96.35;94686.00;5044024;28;20435;-79
2021/09/20 00:29:48;;;;;;;7.67;6.97;;;;;;;17.25;96.50;94688.66;5096621;28;20201;-78
2021/09/20 00:32:15;;;;;;;8.37;7.57;;;;;;;17.26;96.16;94690.31;5096294;28;20442;-79
2021/09/20 00:34:43;;;;;;;7.50;6.80;;;;;;;17.25;95.92;94686.00;5096437;28;20446;-79
2021/09/20 00:37:10;;;;;;;9.37;6.67;;;;;;;17.28;96.28;94685.66;5096415;28;20831;-79
2021/09/20 00:39:39;;;;;;;7.83;6.27;;;;;;;17.30;95.62;94682.81;5096153;28;20485;-79
2021/09/20 00:42:07;;;;;;;12.33;8.10;;;;;;;17.27;96.02;94685.81;5096395;28;20953;-79
2021/09/20 00:44:34;;;;;;;9.10;7.00;;;;;;;17.28;95.38;94677.69;5096385;28;20464;-79
2021/09/20 00:47:01;;;;;;;10.17;6.93;;;;;;;17.23;95.86;94680.06;5096200;28;20525;-79
2021/09/20 00:49:28;;;;;;;10.53;8.13;;;;;;;17.19;95.83;94684.06;5096020;28;20786;-79
2021/09/20 00:51:55;;;;;;;7.77;6.80;;;;;;;17.18;95.81;94677.13;5095912;28;20445;-79
2021/09/20 00:54:23;;;;;;;12.13;7.67;;;;;;;17.17;95.92;94674.63;5096437;28;20446;-79
2021/09/20 00:56:51;;;;;;;9.13;7.83;;;;;;;17.12;96.07;94661.91;5095999;28;20451;-79
2021/09/20 00:59:20;;;;;;;11.77;6.80;;;;;;;17.08;96.33;94676.53;5095736;28;20489;-79
2021/09/20 01:01:47;;;;;;;8.87;7.30;;;;;;;17.08;96.08;94678.34;5094932;28;20451;-78
2021/09/20 01:04:14;;;;;;;8.97;7.00;;;;;;;17.08;96.21;94675.69;5095874;28;20504;-79
2021/09/20 01:06:41;;;;;;;8.63;7.73;;;;;;;17.05;96.48;94676.84;5095716;28;20936;-79
2021/09/20 01:09:08;;;;;;;8.07;7.27;;;;;;;17.00;96.67;94680.03;5043552;28;20448;-79
2021/09/20 01:11:35;;;;;;;16.43;9.20;;;;;;;17.02;97.02;94687.81;5095667;28;20531;-79
2021/09/20 01:14:04;;;;;;;9.03;8.13;;;;;;;17.02;96.97;94691.28;5095524;28;20450;-79
2021/09/20 01:16:31;;;;;;;9.20;7.37;;;;;;;16.98;96.96;94686.50;5095490;28;20440;-79
2021/09/20 01:18:58;;;;;;;7.60;6.60;;;;;;;16.92;97.19;94687.19;5095241;28;20440;-79
2021/09/20 01:21:25;;;;;;;8.87;7.80;;;;;;;16.94;96.84;94693.16;5059984;28;20440;-79
2021/09/20 01:23:53;;;;;;;8.80;7.57;;;;;;;16.89;96.93;94676.94;5095684;28;20795;-79
2021/09/20 01:26:20;;;;;;;9.13;8.23;;;;;;;16.78;97.43;94674.69;5095935;28;20444;-78
2021/09/20 01:28:47;;;;;;;9.23;7.63;;;;;;;16.80;97.50;94680.66;5043550;28;20441;-79
2021/09/20 01:31:15;;;;;;;10.17;7.70;;;;;;;16.81;97.69;94674.34;5095444;28;20473;-79
2021/09/20 01:33:42;;;;;;;9.50;8.60;;;;;;;16.83;97.79;94677.66;5094981;28;20440;-79
2021/09/20 01:36:09;;;;;;;8.67;7.73;;;;;;;16.88;97.10;94691.19;5095177;28;20440;-79
2021/09/20 01:38:36;;;;;;;10.83;8.57;;;;;;;16.89;96.96;94672.47;5095123;28;20443;-79
2021/09/20 01:41:06;;;;;;;10.50;8.23;;;;;;;16.86;97.40;94672.00;5059444;28;20479;-79
2021/09/20 01:43:33;;;;;;;8.23;7.37;;;;;;;16.88;96.80;94673.47;5055897;28;21188;-79
2021/09/20 01:46:00;;;;;;;8.87;7.93;;;;;;;16.86;96.41;94669.34;5074714;28;20447;-79
2021/09/20 01:48:27;;;;;;;10.43;8.60;;;;;;;16.91;96.32;94674.94;5039475;28;20440;-79
2021/09/20 01:50:53;;;;;;;9.63;8.17;;;;;;;16.92;96.27;94671.28;5074508;28;20445;-79
2021/09/20 01:53:20;;;;;;;14.40;9.40;;;;;;;16.93;95.97;94678.25;5074729;28;20951;-79
2021/09/20 01:55:47;;;;;;;9.67;7.73;;;;;;;16.93;96.12;94676.41;5074453;28;20443;-79
2021/09/20 01:58:16;;;;;;;9.50;8.50;;;;;;;16.97;95.30;94680.38;5074937;28;20448;-79
2021/09/20 02:00:45;;;;;;;12.93;9.37;;;;;;;16.86;95.40;94685.25;5074703;28;20485;-79
2021/09/20 02:03:13;;;;;;;10.53;8.03;;;;;;;16.88;95.24;94697.31;5074230;28;20440;-79
2021/09/20 02:05:40;;;;;;;15.03;8.63;;;;;;;16.81;95.06;94688.44;5074249;28;20441;-79
2021/09/20 02:08:08;;;;;;;10.20;7.83;;;;;;;16.71;95.23;94691.25;5074316;28;20451;-79
2021/09/20 02:10:34;;;;;;;9.87;8.37;;;;;;;16.61;95.26;94685.31;5074542;28;20824;-79
2021/09/20 02:13:01;;;;;;;8.37;7.57;;;;;;;16.46;95.90;94680.91;5073443;28;20441;-79
2021/09/20 02:15:30;;;;;;;8.90;8.00;;;;;;;16.31;97.08;94672.84;5074768;28;20952;-79
2021/09/20 02:17:57;;;;;;;14.13;10.27;;;;;;;16.26;97.97;94668.06;5074350;28;20453;-79
2021/09/20 02:20:24;;;;;;;19.63;8.87;;;;;;;16.22;97.63;94665.94;5074300;28;20485;-79
2021/09/20 02:22:51;;;;;;;17.33;8.80;;;;;;;16.25;98.28;94662.94;5074126;28;20452;-79
2021/09/20 02:25:20;;;;;;;8.90;7.40;;;;;;;16.21;97.64;94651.06;5074111;28;20455;-79
2021/09/20 02:27:47;;;;;;;11.33;8.40;;;;;;;16.23;97.04;94633.16;5074310;28;20449;-79
2021/09/20 02:30:15;;;;;;;8.17;7.33;;;;;;;16.25;97.00;94631.19;5073901;28;20452;-79
2021/09/20 02:32:44;;;;;;;9.47;7.83;;;;;;;16.29;97.04;94630.66;5038672;28;20929;-79
2021/09/20 02:35:11;;;;;;;12.70;8.40;;;;;;;16.32;96.47;94626.84;5073677;28;20450;-79
2021/09/20 02:37:39;;;;;;;12.10;9.23;;;;;;;16.23;96.74;94612.81;5073763;28;20445;-79
2021/09/20 02:40:08;;;;;;;14.60;8.50;;;;;;;16.24;96.00;94608.34;5073645;28;20828;-79
2021/09/20 02:42:35;;;;;;;10.97;8.87;;;;;;;16.26;95.80;94603.69;5074882;28;20458;-78
2021/09/20 02:45:02;;;;;;;10.00;8.80;;;;;;;16.28;95.53;94614.94;5094254;28;20458;-79
2021/09/20 02:47:29;;;;;;;13.83;8.30;;;;;;;16.30;95.91;94626.19;5093918;28;20924;-79
2021/09/20 02:49:57;;;;;;;11.90;8.03;;;;;;;16.33;94.91;94615.25;5058200;28;20438;-79
2021/09/20 02:52:24;;;;;;;13.50;10.10;;;;;;;16.21;95.35;94614.81;5042022;28;20448;-79
2021/09/20 02:54:51;;;;;;;15.30;9.00;;;;;;;16.13;96.48;94616.63;5093763;28;20449;-79
2021/09/20 02:57:18;;;;;;;8.63;7.83;;;;;;;16.11;97.05;94627.41;5093671;28;20980;-79
2021/09/20 02:59:45;;;;;;;10.07;9.07;;;;;;;16.18;97.65;94635.47;5093342;28;20482;-79
2021/09/20 03:02:12;;;;;;;11.10;8.53;;;;;;;16.20;97.66;94626.41;5058158;28;20942;-79
2021/09/20 03:04:38;;;;;;;15.13;8.47;;;;;;;16.20;96.50;94630.88;5093765;28;20442;-79
2021/09/20 03:07:07;;;;;;;12.80;8.23;;;;;;;16.19;96.67;94634.47;5093720;28;20454;-79
2021/09/20 03:09:34;;;;;;;13.40;9.60;;;;;;;16.08;96.46;94625.09;5093467;28;20444;-79
2021/09/20 03:12:01;;;;;;;10.20;8.67;;;;;;;15.90;97.65;94643.84;5093251;28;20436;-79
2021/09/20 03:14:28;;;;;;;12.20;9.40;;;;;;;15.95;97.64;94652.09;5093444;28;20452;-79
2021/09/20 03:16:55;;;;;;;9.90;8.90;;;;;;;15.89;96.94;94633.41;5041098;28;20424;-79
2021/09/20 03:19:22;;;;;;;12.47;8.27;;;;;;;15.73;97.91;94645.69;5093193;28;20805;-79
2021/09/20 03:21:49;;;;;;;9.80;8.80;;;;;;;15.74;98.37;94643.88;5093122;28;20486;-79
2021/09/20 03:24:18;;;;;;;10.77;8.57;;;;;;;15.77;98.70;94647.00;5092780;28;20527;-79
2021/09/20 03:26:45;;;;;;;11.47;8.00;;;;;;;15.79;98.19;94654.75;5093164;28;20443;-79
2021/09/20 03:29:12;;;;;;;11.97;9.20;;;;;;;15.82;98.69;94645.66;5093227;28;20789;-79
2021/09/20 03:31:39;;;;;;;12.23;7.83;;;;;;;15.86;98.50;94660.19;5041442;28;20446;-79
2021/09/20 03:34:06;;;;;;;9.77;8.40;;;;;;;15.80;99.10;94632.59;5041088;28;20450;-79
2021/09/20 03:36:33;;;;;;;10.93;9.17;;;;;;;15.76;99.30;94637.41;5093124;28;20462;-79
2021/09/20 03:39:00;;;;;;;14.80;9.17;;;;;;;15.81;99.07;94623.66;5041188;28;20450;-79
2021/09/20 03:41:28;;;;;;;12.40;8.87;;;;;;;15.69;99.58;94646.19;5093091;28;20482;-79
2021/09/20 03:43:55;;;;;;;13.90;9.57;;;;;;;15.70;99.49;94653.94;5093104;28;20492;-79
2021/09/20 03:46:38;;;;;;;18.90;8.87;;;;;;;15.35;100.00;94636.59;5131583;27;20277;-78
2021/09/20 03:49:05;;;;;;;16.83;10.10;;;;;;;15.55;100.00;94665.31;5131772;27;20441;-78
2021/09/20 03:51:32;;;;;;;12.90;9.03;;;;;;;15.62;100.00;94667.19;5131138;27;20454;-79
2021/09/20 03:53:59;;;;;;;19.83;10.43;;;;;;;15.64;100.00;94653.81;5131531;28;20464;-79
2021/09/20 03:56:26;;;;;;;15.10;9.17;;;;;;;15.67;100.00;94648.19;5131336;28;20448;-79
2021/09/20 03:58:54;;;;;;;12.93;9.20;;;;;;;15.65;100.00;94644.88;5131361;28;20439;-79
2021/09/20 04:01:21;;;;;;;17.87;9.90;;;;;;;15.33;100.00;94620.06;5131152;28;20441;-80
2021/09/20 04:03:49;;;;;;;10.10;8.60;;;;;;;15.42;100.00;94645.50;5131057;28;20533;-79
2021/09/20 04:06:16;;;;;;;12.80;9.60;;;;;;;15.54;100.00;94621.34;5130733;27;20859;-79
2021/09/20 04:08:43;;;;;;;11.03;9.70;;;;;;;15.58;100.00;94627.97;5130939;28;20440;-79
2021/09/20 04:11:10;;;;;;;18.93;10.30;;;;;;;15.63;100.00;94637.09;5095091;28;20766;-80
2021/09/20 04:13:37;;;;;;;27.30;9.57;;;;;;;15.75;100.00;94645.50;5130842;28;20933;-80
2021/09/20 04:16:04;;;;;;;12.57;8.87;;;;;;;15.78;100.00;94624.84;5130951;28;20790;-79
2021/09/20 04:18:31;;;;;;;10.70;8.50;;;;;;;15.82;100.00;94635.91;5131130;28;20446;-80
2021/09/20 04:20:59;;;;;;;16.37;10.07;;;;;;;15.89;100.00;94646.63;5130816;28;20444;-79
2021/09/20 04:23:27;;;;;;;14.37;9.80;;;;;;;15.96;100.00;94632.59;5130718;28;20438;-79
2021/09/20 04:25:54;;;;;;;14.70;8.60;;;;;;;16.04;100.00;94635.19;5130553;28;20476;-79
2021/09/20 04:28:22;;;;;;;11.90;8.60;;;;;;;16.15;100.00;94630.53;5130638;28;20521;-79
2021/09/20 04:30:49;;;;;;;12.83;9.63;;;;;;;16.22;99.59;94639.47;5130822;28;20442;-80
2021/09/20 04:33:18;;;;;;;11.43;9.13;;;;;;;16.25;99.29;94653.19;5130397;27;20441;-79
2021/09/20 04:35:45;;;;;;;18.33;9.13;;;;;;;16.32;99.41;94654.16;5130382;28;20929;-80
2021/09/20 04:38:14;;;;;;;13.13;10.18;;;;;;;16.49;98.84;94646.97;5129515;28;20453;-80
2021/09/20 04:40:41;;;;;;;14.37;8.93;;;;;;;16.54;97.56;94652.56;5130271;27;20192;-79
2021/09/20 04:43:10;;;;;;;13.43;9.80;;;;;;;16.59;97.46;94660.00;5130856;27;20453;-80
2021/09/20 04:45:37;;;;;;;13.73;8.60;;;;;;;16.63;97.30;94658.66;5130409;28;20489;-79
2021/09/20 04:48:10;;;;;;;23.00;9.20;;;;;;;16.65;97.41;94657.47;5130222;28;20445;-79
2021/09/20 04:50:37;;;;;;;15.73;9.80;;;;;;;16.67;96.50;94646.75;5112064;28;20434;-80
2021/09/20 04:53:04;;;;;;;14.83;8.90;;;;;;;16.68;96.15;94635.97;5130209;28;20442;-79
2021/09/20 04:55:33;;;;;;;17.90;9.40;;;;;;;16.55;96.69;94638.34;5130262;28;20525;-80
2021/09/20 04:58:05;;;;;;;10.03;9.03;;;;;;;16.56;97.31;94663.00;5116433;28;20803;-79
2021/09/20 05:00:32;;;;;;;14.10;9.50;;;;;;;16.54;97.61;94659.69;5116170;28;20995;-79
2021/09/20 05:02:59;;;;;;;14.17;9.47;;;;;;;16.54;97.64;94662.34;5116551;28;20447;-80
2021/09/20 05:05:26;;;;;;;16.63;9.00;;;;;;;16.53;96.94;94672.13;5116220;28;20489;-80
2021/09/20 05:07:53;;;;;;;15.17;10.10;;;;;;;16.52;97.62;94674.94;5116211;28;20453;-79
2021/09/20 05:10:20;;;;;;;11.03;9.80;;;;;;;16.51;97.91;94671.47;5116207;28;20449;-79
2021/09/20 05:12:49;;;;;;;12.60;9.20;;;;;;;16.52;98.01;94680.25;5115784;28;20445;-79
2021/09/20 05:15:16;;;;;;;11.53;9.10;;;;;;;16.51;98.32;94670.63;5116343;28;20542;-79
2021/09/20 05:17:43;;;;;;;14.20;11.00;;;;;;;16.51;98.42;94689.19;5115971;28;20795;-80
2021/09/20 05:20:12;;;;;;;16.17;10.70;;;;;;;16.49;99.23;94662.88;5116086;28;20529;-80
2021/09/20 05:22:39;;;;;;;19.77;12.93;;;;;;;16.51;99.30;94690.00;5115767;28;20453;-79
2021/09/20 05:25:07;;;;;;;24.17;13.00;;;;;;;16.47;99.88;94672.78;5115740;28;20478;-79
2021/09/20 05:27:34;;;;;;;21.23;12.80;;;;;;;16.48;100.00;94692.16;5079830;28;20433;-79
2021/09/20 05:30:04;;;;;;;20.40;12.27;;;;;;;16.51;100.00;94686.53;5115660;28;20455;-79
2021/09/20 05:32:31;;;;;;;28.43;13.90;;;;;;;16.53;100.00;94709.19;5113767;28;20991;-80
2021/09/20 05:34:58;;;;;;;16.83;12.30;;;;;;;16.46;100.00;94694.13;5115608;28;20445;-80
2021/09/20 05:37:25;;;;;;;13.97;10.30;;;;;;;16.38;100.00;94705.59;5115544;28;20856;-80
2021/09/20 05:39:52;;;;;;;12.10;10.07;;;;;;;16.47;100.00;94688.66;5115379;28;20452;-80
2021/09/20 05:42:19;;;;;;;15.67;10.30;;;;;;;16.46;100.00;94687.03;5113565;28;20453;-80
2021/09/20 05:45:26;;;;;;;;;;;;;;;;;;;;;
2021/09/20 05:48:05;;;;;;;12.80;10.37;;;;;;;16.29;100.00;94688.91;5012363;28;20511;-79
2021/09/20 05:50:32;;;;;;;15.03;12.43;;;;;;;16.43;100.00;94692.66;4950298;28;20452;-80
2021/09/20 05:52:59;;;;;;;24.17;14.30;;;;;;;16.35;100.00;94687.41;5012833;28;20486;-79
2021/09/20 05:55:26;;;;;;;18.03;13.90;;;;;;;16.42;100.00;94697.13;5012818;28;20781;-80
2021/09/20 05:57:53;;;;;;;26.70;15.80;;;;;;;16.48;100.00;94694.78;5012600;28;20454;-80
2021/09/20 06:00:20;;;;;;;30.93;17.00;;;;;;;16.33;100.00;94687.56;4964196;28;20454;-80
2021/09/20 06:02:47;;;;;;;31.53;18.93;;;;;;;16.19;100.00;94685.63;5012699;28;20956;-80
2021/09/20 06:05:16;;;;;;;25.37;17.90;;;;;;;16.13;100.00;94685.47;5012534;28;20846;-79
2021/09/20 06:07:43;;;;;;;25.37;16.43;;;;;;;16.10;100.00;94686.63;5011962;28;20510;-79
2021/09/20 06:10:11;;;;;;;23.80;15.77;;;;;;;16.16;100.00;94695.72;4963613;28;20458;-79
2021/09/20 06:12:38;;;;;;;20.87;16.30;;;;;;;16.22;100.00;94695.06;5096852;28;20444;-80
2021/09/20 06:15:08;;;;;;;24.10;16.90;;;;;;;16.33;100.00;94692.03;5114802;28;20948;-79
2021/09/20 06:17:35;;;;;;;19.47;15.90;;;;;;;16.40;100.00;94690.34;5114679;28;20439;-80
2021/09/20 06:20:02;;;;;;;23.00;15.40;;;;;;;16.52;100.00;94682.88;5095836;28;20805;-79
2021/09/20 06:22:30;;;;;;;31.13;15.60;;;;;;;16.60;100.00;94680.19;5095811;28;20427;-80
2021/09/20 06:24:59;;;;;;;24.60;16.13;;;;;;;16.61;99.83;94671.25;5114511;28;20449;-79
2021/09/20 06:27:26;;;;;;;29.03;17.80;;;;;;;16.58;100.00;94668.94;5114719;28;20448;-79
2021/09/20 06:29:53;;;;;;;21.50;16.10;;;;;;;16.47;100.00;94667.47;5114396;28;20442;-80
2021/09/20 06:32:20;;;;;;;20.07;16.30;;;;;;;16.53;99.99;94687.19;5114813;28;20439;-80
2021/09/20 06:34:48;;;;;;;23.20;16.27;;;;;;;16.61;100.00;94695.91;5114117;28;21080;-79
2021/09/20 06:37:15;;;;;;;21.80;15.90;;;;;;;16.64;100.00;94684.97;5115157;28;20522;-79
2021/09/20 06:39:43;;;;;;;21.57;16.17;;;;;;;16.66;100.00;94683.00;5114898;28;20443;-79
2021/09/20 06:42:10;;;;;;;23.33;16.10;;;;;;;16.73;100.00;94683.97;5114649;28;20526;-78
2021/09/20 06:44:37;;;;;;;28.37;17.37;;;;;;;16.81;100.00;94695.56;5114563;28;20463;-80
2021/09/20 06:47:05;;;;;;;31.30;16.50;;;;;;;16.85;100.00;94691.56;5114735;28;20490;-87
2021/09/20 06:49:32;;;;;;;30.40;14.17;;;;;;;16.89;99.58;94698.16;5116561;28;20855;-91
2021/09/20 06:51:59;;;;;;;29.23;15.77;;;;;;;16.98;100.00;94707.72;5114955;28;20923;-88
2021/09/20 06:54:26;;;;;;;20.27;15.80;;;;;;;17.14;99.94;94712.13;5115264;28;20439;-88
2021/09/20 07:03:38;;;;;;;29.63;17.83;;;;;;;17.46;97.46;94696.00;5115166;28;20483;-88
2021/09/20 07:06:06;;;;;;;33.97;18.03;;;;;;;17.59;97.15;94695.38;5114488;28;20480;-79
2021/09/20 07:08:33;;;;;;;34.70;19.50;;;;;;;17.65;95.83;94690.22;5114794;28;20816;-85
2021/09/20 07:11:00;;;;;;;29.60;19.77;;;;;;;17.58;95.34;94694.56;5114504;28;20444;-89
2021/09/20 07:13:27;;;;;;;26.43;17.73;;;;;;;17.17;97.39;94687.91;5078737;28;20447;-85
2021/09/20 07:15:54;;;;;;;25.73;18.10;;;;;;;17.00;98.35;94674.72;5114683;28;20446;-86
2021/09/20 07:18:21;;;;;;;24.60;18.30;;;;;;;16.85;99.88;94686.25;5095630;28;20442;-85
2021/09/20 07:20:50;;;;;;;24.13;17.93;;;;;;;17.02;100.00;94685.16;5114088;28;20447;-86
2021/09/20 07:23:17;;;;;;;34.10;21.70;;;;;;;17.09;100.00;94691.44;5114448;28;20438;-86
2021/09/20 07:25:44;;;;;;;31.07;20.87;;;;;;;17.24;100.00;94692.31;5114161;28;20979;-86
2021/09/20 07:28:11;;;;;;;26.80;20.87;;;;;;;17.42;100.00;94688.56;5114231;28;20444;-83
2021/09/20 07:30:39;;;;;;;31.97;20.07;;;;;;;17.55;100.00;94691.44;5114068;28;20440;-85
2021/09/20 07:33:06;;;;;;;26.23;19.50;;;;;;;17.65;99.51;94700.81;5114480;28;20518;-85
2021/09/20 07:35:33;;;;;;;37.67;21.47;;;;;;;17.73;98.69;94701.78;5113588;28;20444;-84
2021/09/20 07:38:01;;;;;;;34.30;20.03;;;;;;;17.82;98.31;94696.22;5093529;28;20925;-84
2021/09/20 07:40:29;;;;;;;28.70;18.97;;;;;;;17.87;97.17;94699.16;5093768;28;20441;-85
2021/09/20 07:42:58;;;;;;;36.30;21.47;;;;;;;17.84;97.65;94696.03;5093526;28;20979;-85
2021/09/20 07:45:26;;;;;;;26.17;19.83;;;;;;;17.88;97.98;94705.28;5093678;28;20477;-85
2021/09/20 07:47:53;;;;;;;29.93;22.30;;;;;;;17.93;98.53;94687.84;5093921;28;20444;-84
2021/09/20 07:50:22;;;;;;;27.73;19.80;;;;;;;17.79;97.89;94696.59;5093813;28;20444;-84
2021/09/20 07:52:50;;;;;;;31.43;19.40;;;;;;;17.75;98.80;94691.81;5093401;28;20449;-85
2021/09/20 07:55:19;;;;;;;33.50;21.23;;;;;;;17.68;99.88;94686.41;5093278;28;20524;-84
2021/09/20 07:57:46;;;;;;;36.87;20.60;;;;;;;17.81;100.00;94689.28;5057775;28;20499;-84
2021/09/20 08:00:15;;;;;;;32.07;21.07;;;;;;;17.72;100.00;94677.09;5093637;28;20446;-84
2021/09/20 08:02:42;;;;;;;35.70;20.17;;;;;;;17.90;99.90;94672.25;5091534;28;20929;-85
2021/09/20 08:05:10;;;;;;;30.77;18.00;;;;;;;18.44;100.00;94664.06;5093495;28;20533;-84
2021/09/20 08:07:37;;;;;;;25.30;18.40;;;;;;;18.99;96.02;94656.59;5093508;28;20498;-84
2021/09/20 08:10:05;;;;;;;24.87;16.60;;;;;;;19.49;92.77;94669.03;5093198;28;20449;-85
2021/09/20 08:12:33;;;;;;;21.93;16.57;;;;;;;19.93;89.12;94663.50;5057730;28;20440;-85
2021/09/20 08:15:00;;;;;;;20.20;16.80;;;;;;;20.25;89.47;94658.63;5093397;28;20450;-86
2021/09/20 08:17:27;;;;;;;25.53;15.50;;;;;;;20.45;86.21;94659.59;5091291;28;20451;-85
2021/09/20 08:19:56;;;;;;;27.10;17.00;;;;;;;20.76;86.68;94656.47;5093066;28;20451;-86
2021/09/20 08:22:23;;;;;;;19.53;15.57;;;;;;;21.02;84.24;94661.09;5093183;28;20447;-85
2021/09/20 08:24:50;;;;;;;19.13;14.53;;;;;;;21.19;83.24;94649.03;5057893;28;20463;-89
2021/09/20 08:27:17;;;;;;;19.93;15.40;;;;;;;20.70;84.28;94634.09;5093367;28;20479;-86
2021/09/20 08:29:45;;;;;;;19.43;14.90;;;;;;;20.89;83.88;94645.88;5093093;28;20796;-85
2021/09/20 08:32:12;;;;;;;20.47;14.13;;;;;;;20.58;86.23;94634.84;5095352;28;20447;-85
2021/09/20 08:34:41;;;;;;;22.53;14.80;;;;;;;20.78;85.00;94643.75;5097550;28;20448;-85
2021/09/20 08:37:08;;;;;;;16.60;14.87;;;;;;;20.92;84.04;94657.97;5115234;28;20466;-85
2021/09/20 08:39:37;;;;;;;16.90;13.30;;;;;;;20.85;82.41;94654.47;5082114;28;20446;-86
2021/09/20 08:42:04;;;;;;;15.50;13.80;;;;;;;20.69;82.57;94650.28;5082426;28;20454;-85
2021/09/20 08:44:32;;;;;;;23.83;13.93;;;;;;;20.51;84.02;94641.97;5118050;28;20470;-85
2021/09/20 08:47:00;;;;;;;36.73;16.10;;;;;;;20.37;86.09;94651.72;5117828;28;20573;-84
2021/09/20 08:49:28;;;;;;;22.87;16.47;;;;;;;20.22;86.12;94638.50;5117957;28;20756;-85
2021/09/20 08:51:57;;;;;;;22.87;15.77;;;;;;;20.19;86.77;94622.06;5117634;28;20440;-79
2021/09/20 08:54:25;;;;;;;20.87;15.13;;;;;;;20.14;87.50;94622.66;5117917;28;20448;-85
2021/09/20 08:56:53;;;;;;;23.10;14.47;;;;;;;20.10;87.85;94613.41;5118423;28;20443;-86
2021/09/20 08:59:21;;;;;;;21.77;14.93;;;;;;;20.03;88.31;94608.06;5122262;28;20442;-85
2021/09/20 09:01:49;;;;;;;22.20;15.40;;;;;;;20.00;88.52;94612.97;5131886;28;20491;-84
2021/09/20 09:04:27;;;;;;;17.93;14.83;;;;;;;19.97;88.68;94605.34;5135058;27;20490;-85
2021/09/20 09:06:56;;;;;;;23.33;15.20;;;;;;;19.92;88.61;94608.56;5117701;28;20470;-86
2021/09/20 09:09:31;;;;;;;21.90;15.43;;;;;;;19.79;88.77;94589.84;5138133;28;20463;-85
2021/09/20 09:12:14;;;;;;;18.97;14.27;;;;;;;19.89;89.91;94589.50;5119743;28;20528;-85
2021/09/20 09:14:46;;;;;;;20.73;12.97;;;;;;;20.13;89.13;94602.38;5137478;28;20461;-84
2021/09/20 09:17:16;;;;;;;19.40;14.30;;;;;;;20.24;87.53;94598.31;5138382;28;20507;-84
2021/09/20 09:19:51;;;;;;;18.73;13.90;;;;;;;20.55;88.56;94611.25;5138951;28;20439;-84
2021/09/20 09:22:19;;;;;;;17.23;14.40;;;;;;;20.52;86.72;94600.97;5139856;28;20450;-84
2021/09/20 09:25:02;;;;;;;17.57;13.80;;;;;;;20.69;86.15;94596.94;5138544;28;20474;-85
2021/09/20 09:27:30;;;;;;;18.43;12.67;;;;;;;20.81;84.19;94599.84;5121593;28;20485;-83
2021/09/20 09:30:17;;;;;;;25.47;13.00;;;;;;;20.85;82.84;94601.94;5129874;28;20480;-80
2021/09/20 09:32:46;;;;;;;20.17;11.20;;;;;;;20.87;82.97;94599.06;5137006;28;20464;-85
2021/09/20 09:35:16;;;;;;;12.73;9.43;;;;;;;20.98;82.59;94593.97;5136687;28;20475;-84
2021/09/20 09:37:46;;;;;;;10.80;7.40;;;;;;;21.14;80.56;94602.66;5136550;28;20512;-81
2021/09/20 09:40:18;;;;;;;12.53;7.70;;;;;;;21.30;81.81;94599.63;5136026;28;20461;-81
2021/09/20 09:42:45;;;;;;;8.90;7.13;;;;;;;21.23;79.74;94602.28;5110467;28;20452;-84
2021/09/20 09:45:22;;;;;;;15.63;8.53;;;;;;;21.25;81.08;94602.91;5138192;28;20488;-84
2021/09/20 09:47:50;;;;;;;11.70;8.07;;;;;;;21.00;80.28;94618.59;5136847;28;20480;-85
2021/09/20 09:50:24;;;;;;;9.07;8.27;;;;;;;20.83;80.49;94620.00;5134558;28;20478;-85
2021/09/20 09:52:53;;;;;;;9.93;7.70;;;;;;;20.76;82.02;94624.47;5126893;28;20491;-87
2021/09/20 09:55:22;;;;;;;14.17;9.00;;;;;;;20.80;81.62;94627.53;5118074;28;20437;-85
2021/09/20 09:57:50;;;;;;;15.80;10.00;;;;;;;20.76;82.51;94628.97;5116219;28;20502;-85
2021/09/20 10:00:18;;;;;;;10.87;9.50;;;;;;;20.71;83.01;94616.25;5115964;28;20816;-84
2021/09/20 10:02:48;;;;;;;19.60;8.83;;;;;;;20.82;82.65;94623.69;5116119;28;21002;-85
2021/09/20 10:05:16;;;;;;;9.70;8.70;;;;;;;20.71;83.04;94609.06;5116532;28;20759;-85
2021/09/20 10:07:46;;;;;;;13.50;9.67;;;;;;;20.73;83.61;94606.19;5115892;28;20635;-85
2021/09/20 10:10:16;;;;;;;10.47;9.23;;;;;;;20.85;84.82;94609.94;5116267;28;20536;-85
2021/09/20 10:12:46;;;;;;;17.73;10.10;;;;;;;20.90;85.16;94599.50;5079451;28;20530;-85
2021/09/20 10:15:16;;;;;;;18.10;11.40;;;;;;;20.74;83.19;94605.16;5115343;28;20455;-84
2021/09/20 10:17:44;;;;;;;19.53;11.00;;;;;;;20.77;84.26;94612.78;5114860;28;20884;-85
2021/09/20 10:20:14;;;;;;;11.37;9.63;;;;;;;20.82;85.10;94607.69;5115135;28;20510;-85
2021/09/20 10:22:41;;;;;;;10.53;9.63;;;;;;;20.86;84.58;94611.59;5114557;28;20444;-85
2021/09/20 10:25:12;;;;;;;19.70;13.77;;;;;;;20.88;85.67;94601.53;5115297;28;20964;-85
2021/09/20 10:27:39;;;;;;;21.20;13.30;;;;;;;20.84;85.80;94591.47;5114837;28;20508;-84
2021/09/20 10:30:10;;;;;;;20.43;14.73;;;;;;;20.84;86.53;94594.97;5114815;28;20967;-85
2021/09/20 10:32:40;;;;;;;23.10;15.40;;;;;;;20.83;86.97;94593.31;5095784;28;20444;-85
2021/09/20 10:35:28;;;;;;;25.57;17.13;;;;;;;20.78;87.40;94585.06;5114689;28;20818;-84
2021/09/20 10:37:58;;;;;;;22.97;14.53;;;;;;;20.74;87.12;94586.50;5114920;28;20816;-85
2021/09/20 10:40:26;;;;;;;31.40;15.00;;;;;;;20.76;86.38;94578.31;5114908;28;20530;-85
2021/09/20 10:43:02;;;;;;;21.77;13.50;;;;;;;20.77;86.54;94577.28;5115032;28;20440;-85
2021/09/20 10:45:42;;;;;;;20.20;15.03;;;;;;;20.76;86.92;94564.97;5115152;28;20482;-85
2021/09/20 10:48:59;;;;;;;19.13;14.73;;;;;;;20.78;86.55;94563.75;5114680;28;20549;-85
2021/09/20 10:51:35;;;;;;;24.80;14.47;;;;;;;20.75;86.12;94553.47;5114089;28;20451;-84
2021/09/20 10:54:29;;;;;;;29.20;16.17;;;;;;;20.71;86.75;94558.41;5114093;28;20467;-85
2021/09/20 10:57:12;;;;;;;24.00;14.77;;;;;;;20.70;87.62;94555.94;5114458;28;20949;-85
2021/09/20 10:59:39;;;;;;;27.53;13.90;;;;;;;20.71;88.10;94557.56;5114828;28;20500;-85
2021/09/20 11:02:12;;;;;;;28.13;13.13;;;;;;;20.72;88.58;94543.22;5095351;28;20950;-84
2021/09/20 11:04:41;;;;;;;28.87;14.83;;;;;;;20.76;88.18;94543.63;5114005;28;20453;-85
2021/09/20 11:07:15;;;;;;;21.00;12.80;;;;;;;20.82;88.44;94543.69;5114385;28;20519;-84
2021/09/20 11:09:46;;;;;;;20.00;12.43;;;;;;;20.93;88.54;94535.06;5095576;28;20440;-84
2021/09/20 11:12:22;;;;;;;22.83;11.60;;;;;;;21.08;89.24;94523.38;5113972;28;20473;-85
2021/09/20 11:15:20;;;;;;;14.70;12.70;;;;;;;21.24;86.84;94521.19;5113783;28;20542;-85
2021/09/20 11:17:50;;;;;;;13.10;10.67;;;;;;;21.41;86.17;94518.13;5070541;28;20440;-84
2021/09/20 11:20:30;;;;;;;16.37;9.13;;;;;;;21.53;84.32;94509.28;5070819;28;20959;-85
2021/09/20 11:23:30;;;;;;;12.40;8.40;;;;;;;21.55;81.32;94507.22;5070796;28;20446;-85
2021/09/20 11:26:15;;;;;;;16.17;10.10;;;;;;;21.75;81.68;94501.03;4991282;28;20490;-85
2021/09/20 11:28:47;;;;;;;14.77;9.37;;;;;;;22.00;81.42;94493.19;4991189;28;20479;-85
2021/09/20 11:31:14;;;;;;;13.47;9.77;;;;;;;22.20;82.10;94494.78;4991264;28;20453;-85
2021/09/20 11:33:42;;;;;;;13.30;9.67;;;;;;;22.40;81.20;94489.34;4958665;28;20437;-84
2021/09/20 11:36:22;;;;;;;16.37;9.90;;;;;;;22.58;80.07;94491.34;4943635;28;20554;-85